Terminal Aerodrome Forecast
Issued by NWS

Home | Current Version | Previous Version | Text Only | Print | Product List | Glossary On
Versions: 1 2 3 4 5 6 7 8 9 10 11 12 13 14 15
000
FTUS44 KTSA 242300
TAFFYV
TAF
KFYV 242333Z 2500/2524 27007KT P6SM BKN025
     FM250300 22005KT P6SM SCT025
     FM251500 19015G25KT P6SM FEW250=

USA.gov is the U.S. government's official web portal to all federal, state and local government web resources and services.